createdAt,value
2017-04-05T00:00:35.018Z,23.0
2017-04-05T00:01:43.107Z,22.9
2017-04-05T00:02:51.184Z,22.9
2017-04-05T00:03:59.298Z,22.9
2017-04-05T00:05:07.377Z,22.9
2017-04-05T00:06:15.460Z,22.9
2017-04-05T00:07:23.546Z,22.9
2017-04-05T00:08:31.640Z,22.9
2017-04-05T00:09:39.720Z,22.9
2017-04-05T00:10:47.809Z,22.8
2017-04-05T00:11:55.898Z,22.9
2017-04-05T00:13:03.989Z,22.8
2017-04-05T00:14:12.078Z,22.8
2017-04-05T00:15:20.166Z,22.8
2017-04-05T00:16:28.256Z,22.8
2017-04-05T00:17:36.343Z,22.8
2017-04-05T00:18:44.429Z,22.8
2017-04-05T00:19:52.515Z,22.7
2017-04-05T00:21:00.609Z,22.8
2017-04-05T00:22:08.698Z,22.7
2017-04-05T00:23:16.782Z,22.8
2017-04-05T00:24:24.875Z,22.8
2017-04-05T00:25:32.962Z,22.8
2017-04-05T00:26:41.048Z,22.7
2017-04-05T00:27:49.146Z,22.8
2017-04-05T00:28:57.234Z,22.7
2017-04-05T00:30:05.317Z,22.7
2017-04-05T00:31:13.402Z,22.8
2017-04-05T00:32:21.494Z,22.8
2017-04-05T00:33:29.577Z,22.7
2017-04-05T00:34:37.662Z,22.7
2017-04-05T00:35:45.752Z,22.6
2017-04-05T00:36:53.848Z,22.6
2017-04-05T00:38:01.929Z,22.7
2017-04-05T00:39:10.018Z,22.6
2017-04-05T00:40:18.109Z,22.7
2017-04-05T00:41:26.193Z,22.6
2017-04-05T00:42:34.282Z,22.7
2017-04-05T00:43:42.368Z,22.6
2017-04-05T00:44:50.455Z,22.6
2017-04-05T00:45:58.601Z,22.6
2017-04-05T00:47:06.624Z,22.6
2017-04-05T00:48:14.714Z,22.6
2017-04-05T00:49:22.797Z,22.6
2017-04-05T00:50:30.888Z,22.6
2017-04-05T00:51:38.975Z,22.6
2017-04-05T00:52:47.061Z,22.6
2017-04-05T00:53:55.231Z,22.6
2017-04-05T00:55:03.228Z,22.6
2017-04-05T00:56:11.329Z,22.6
2017-04-05T00:57:19.407Z,22.6
2017-04-05T00:58:27.490Z,22.6
2017-04-05T00:59:35.584Z,22.5
2017-04-05T01:00:43.671Z,22.6
2017-04-05T01:01:51.754Z,22.6
2017-04-05T01:02:59.840Z,22.5
2017-04-05T01:04:07.933Z,22.5
2017-04-05T01:05:16.019Z,22.5
2017-04-05T01:06:24.101Z,22.5
2017-04-05T01:07:32.192Z,22.5
2017-04-05T01:08:40.277Z,22.5
2017-04-05T01:09:48.363Z,22.6
2017-04-05T01:10:56.449Z,22.5
2017-04-05T01:12:04.539Z,22.5
2017-04-05T01:13:12.631Z,22.6
2017-04-05T01:14:20.705Z,22.4
2017-04-05T01:15:28.801Z,22.4
2017-04-05T01:16:36.887Z,22.4
2017-04-05T01:17:44.976Z,22.5
2017-04-05T01:18:53.065Z,22.4
2017-04-05T01:20:01.152Z,22.4
2017-04-05T01:21:09.240Z,22.4
2017-04-05T01:22:17.321Z,22.4
2017-04-05T01:23:25.411Z,22.4
2017-04-05T01:24:33.497Z,22.4
2017-04-05T01:25:41.576Z,22.4
2017-04-05T01:26:49.667Z,22.3
2017-04-05T01:27:57.755Z,22.3
2017-04-05T01:29:05.844Z,22.4
2017-04-05T01:30:13.927Z,22.3
2017-04-05T01:31:22.017Z,22.3
2017-04-05T01:32:30.107Z,22.4
2017-04-05T01:33:38.187Z,22.3
2017-04-05T01:34:46.277Z,22.3
2017-04-05T01:35:54.380Z,22.3
2017-04-05T01:37:02.445Z,22.3
2017-04-05T01:38:10.535Z,22.2
2017-04-05T01:39:18.622Z,22.3
2017-04-05T01:40:26.806Z,22.3
2017-04-05T01:41:34.792Z,22.3
2017-04-05T01:42:42.883Z,22.2
2017-04-05T01:43:50.969Z,22.3
2017-04-05T01:44:59.053Z,22.2
2017-04-05T01:46:07.138Z,22.2
2017-04-05T01:47:15.227Z,22.2
2017-04-05T01:48:23.309Z,22.2
2017-04-05T01:49:31.393Z,22.1
2017-04-05T01:50:39.483Z,22.1
2017-04-05T01:51:47.574Z,22.2
2017-04-05T01:52:55.667Z,22.2
2017-04-05T01:54:03.748Z,22.2
2017-04-05T01:55:11.837Z,22.1
2017-04-05T01:56:19.922Z,22.1
2017-04-05T01:57:28.059Z,22.2
2017-04-05T01:58:36.095Z,22.1
2017-04-05T01:59:44.186Z,22.0
2017-04-05T02:00:52.269Z,22.1
2017-04-05T02:02:00.355Z,22.1
2017-04-05T02:03:08.447Z,22.1
2017-04-05T02:04:16.531Z,22.2
2017-04-05T02:05:24.615Z,22.1
2017-04-05T02:06:32.708Z,22.1
2017-04-05T02:07:40.794Z,22.1
2017-04-05T02:08:48.879Z,22.0
2017-04-05T02:09:56.968Z,22.1
2017-04-05T02:11:05.060Z,22.0
2017-04-05T02:12:13.142Z,22.0
2017-04-05T02:13:21.227Z,22.0
2017-04-05T02:14:29.318Z,22.1
2017-04-05T02:15:37.415Z,21.9
2017-04-05T02:16:45.496Z,21.9
2017-04-05T02:17:53.587Z,22.0
2017-04-05T02:19:01.675Z,22.0
2017-04-05T02:20:09.766Z,22.0
2017-04-05T02:21:17.845Z,22.0
2017-04-05T02:22:25.935Z,21.9
2017-04-05T02:23:34.031Z,21.9
2017-04-05T02:24:42.107Z,21.9
2017-04-05T02:25:50.195Z,21.9
2017-04-05T02:26:58.278Z,22.0
2017-04-05T02:28:06.368Z,21.9
2017-04-05T02:29:14.453Z,21.8
2017-04-05T02:30:22.547Z,21.9
2017-04-05T02:31:30.627Z,21.9
2017-04-05T02:32:38.724Z,21.9
2017-04-05T02:33:46.798Z,21.9
2017-04-05T02:34:54.888Z,21.8
2017-04-05T02:36:02.971Z,21.8
2017-04-05T02:37:11.055Z,21.8
2017-04-05T02:38:19.145Z,21.8
2017-04-05T02:39:27.227Z,21.8
2017-04-05T02:40:35.310Z,21.8
2017-04-05T02:41:43.400Z,21.8
2017-04-05T02:42:51.490Z,21.8
2017-04-05T02:43:59.576Z,21.8
2017-04-05T02:45:07.659Z,21.8
2017-04-05T02:46:15.750Z,21.8
2017-04-05T02:47:23.837Z,21.7
2017-04-05T02:48:31.923Z,21.8
2017-04-05T02:49:40.011Z,21.7
2017-04-05T02:50:48.096Z,21.7
2017-04-05T02:51:56.184Z,21.8
2017-04-05T02:53:04.266Z,21.7
2017-04-05T02:54:12.360Z,21.8
2017-04-05T02:55:20.447Z,21.7
2017-04-05T02:56:28.533Z,21.7
2017-04-05T02:57:36.619Z,21.7
2017-04-05T02:58:44.704Z,21.7
2017-04-05T02:59:52.786Z,21.7
2017-04-05T03:01:00.875Z,21.7
2017-04-05T03:02:08.960Z,21.6
2017-04-05T03:03:17.047Z,21.6
2017-04-05T03:04:25.130Z,21.7
2017-04-05T03:05:33.226Z,21.6
2017-04-05T03:06:41.306Z,21.8
2017-04-05T03:07:49.390Z,21.6
2017-04-05T03:08:57.474Z,21.6
2017-04-05T03:10:05.564Z,21.6
2017-04-05T03:11:13.648Z,21.7
2017-04-05T03:12:21.729Z,21.7
2017-04-05T03:13:29.819Z,21.7
2017-04-05T03:14:37.906Z,21.6
2017-04-05T03:15:45.990Z,21.7
2017-04-05T03:16:54.076Z,21.6
2017-04-05T03:18:02.181Z,21.6
2017-04-05T03:19:10.265Z,21.6
2017-04-05T03:20:18.341Z,21.6
2017-04-05T03:21:26.435Z,21.6
2017-04-05T03:22:34.524Z,21.6
2017-04-05T03:23:42.607Z,21.6
2017-04-05T03:24:50.692Z,21.6
2017-04-05T03:25:58.782Z,21.5
2017-04-05T03:27:06.869Z,21.5
2017-04-05T03:28:14.955Z,21.5
2017-04-05T03:29:23.040Z,21.5
2017-04-05T03:30:31.127Z,21.5
2017-04-05T03:31:39.210Z,21.5
2017-04-05T03:32:47.298Z,21.5
2017-04-05T03:33:55.381Z,21.5
2017-04-05T03:35:03.465Z,21.5
2017-04-05T03:36:11.552Z,21.5
2017-04-05T03:37:19.639Z,21.5
2017-04-05T03:38:27.725Z,21.5
2017-04-05T03:39:35.811Z,21.5
2017-04-05T03:40:43.899Z,21.5
2017-04-05T03:41:51.985Z,21.4
2017-04-05T03:43:00.068Z,21.4
2017-04-05T03:44:08.152Z,21.4
2017-04-05T03:45:16.243Z,21.4
2017-04-05T03:46:24.333Z,21.4
2017-04-05T03:47:32.414Z,21.4
2017-04-05T03:48:40.504Z,21.3
2017-04-05T03:49:48.597Z,21.4
2017-04-05T03:50:56.675Z,21.3
2017-04-05T03:52:04.764Z,21.3
2017-04-05T03:53:12.853Z,21.3
2017-04-05T03:54:20.940Z,21.3
2017-04-05T03:55:29.026Z,21.3
2017-04-05T03:56:37.128Z,21.3
2017-04-05T03:57:45.197Z,21.3
2017-04-05T03:58:53.291Z,21.3
2017-04-05T04:00:01.371Z,21.2
2017-04-05T04:01:09.459Z,21.3
2017-04-05T04:02:17.542Z,21.3
2017-04-05T04:03:25.626Z,21.2
2017-04-05T04:04:33.717Z,21.2
2017-04-05T04:05:41.804Z,21.3
2017-04-05T04:06:49.893Z,21.1
2017-04-05T04:07:57.974Z,21.2
2017-04-05T04:09:06.062Z,21.2
2017-04-05T04:10:14.147Z,21.1
2017-04-05T04:11:22.231Z,21.1
2017-04-05T04:12:30.317Z,21.2
2017-04-05T04:13:38.407Z,21.1
2017-04-05T04:14:46.493Z,21.1
2017-04-05T04:15:54.570Z,21.0
2017-04-05T04:17:02.662Z,21.1
2017-04-05T04:18:10.746Z,21.2
2017-04-05T04:19:18.833Z,21.0
2017-04-05T04:20:26.916Z,21.1
2017-04-05T04:21:35.002Z,21.1
2017-04-05T04:22:43.726Z,21.1
2017-04-05T04:23:51.170Z,21.1
2017-04-05T04:24:59.263Z,21.0
2017-04-05T04:26:07.353Z,21.0
2017-04-05T04:27:15.433Z,21.0
2017-04-05T04:28:23.521Z,21.1
2017-04-05T04:29:31.620Z,21.0
2017-04-05T04:30:39.694Z,21.0
2017-04-05T04:31:47.781Z,21.0
2017-04-05T04:32:55.870Z,21.1
2017-04-05T04:34:03.956Z,21.0
2017-04-05T04:35:12.041Z,21.0
2017-04-05T04:36:20.131Z,21.0
2017-04-05T04:37:28.223Z,21.0
2017-04-05T04:38:36.306Z,21.0
2017-04-05T04:39:44.397Z,20.9
2017-04-05T04:40:52.479Z,20.9
2017-04-05T04:42:00.564Z,20.9
2017-04-05T04:43:08.669Z,20.9
2017-04-05T04:44:16.733Z,20.9
2017-04-05T04:45:24.824Z,20.9
2017-04-05T04:46:32.901Z,20.9
2017-04-05T04:47:40.993Z,20.9
2017-04-05T04:48:49.084Z,20.9
2017-04-05T04:49:57.165Z,20.9
2017-04-05T04:51:05.249Z,20.9
2017-04-05T04:52:13.336Z,20.9
2017-04-05T04:53:21.422Z,20.9
2017-04-05T04:54:29.503Z,20.9
2017-04-05T04:55:37.594Z,20.8
2017-04-05T04:56:45.683Z,20.9
2017-04-05T04:57:53.767Z,20.9
2017-04-05T04:59:01.850Z,20.8
2017-04-05T05:00:09.965Z,20.9
2017-04-05T05:01:18.345Z,20.9
2017-04-05T05:02:26.254Z,20.8
2017-04-05T05:03:34.192Z,20.8
2017-04-05T05:04:42.353Z,20.8
2017-04-05T05:05:50.372Z,20.8
2017-04-05T05:06:58.445Z,20.8
2017-04-05T05:08:06.620Z,20.8
2017-04-05T05:09:14.624Z,20.8
2017-04-05T05:10:22.712Z,20.9
2017-04-05T05:11:32.530Z,20.8
2017-04-05T05:12:39.004Z,20.8
2017-04-05T05:13:46.954Z,20.8
2017-04-05T05:14:55.321Z,20.8
2017-04-05T05:16:03.139Z,20.8
2017-04-05T05:17:11.269Z,20.8
2017-04-05T05:18:19.305Z,20.7
2017-04-05T05:19:27.392Z,20.8
2017-04-05T05:20:35.478Z,20.7
2017-04-05T05:21:43.563Z,20.7
2017-04-05T05:22:51.645Z,20.7
2017-04-05T05:23:59.737Z,20.7
2017-04-05T05:25:07.818Z,20.7
2017-04-05T05:26:15.905Z,20.7
2017-04-05T05:27:23.990Z,20.7
2017-04-05T05:28:32.083Z,20.7
2017-04-05T05:29:40.162Z,20.7
2017-04-05T05:30:48.247Z,20.7
2017-04-05T05:31:56.336Z,20.7
2017-04-05T05:33:04.790Z,20.7
2017-04-05T05:34:12.506Z,20.6
2017-04-05T05:35:20.596Z,20.6
2017-04-05T05:36:28.680Z,20.6
2017-04-05T05:37:36.762Z,20.6
2017-04-05T05:38:44.850Z,20.6
2017-04-05T05:39:52.940Z,20.7
2017-04-05T05:41:01.026Z,20.6
2017-04-05T05:42:09.108Z,20.6
2017-04-05T05:43:17.198Z,20.6
2017-04-05T05:44:25.281Z,20.5
2017-04-05T05:45:33.364Z,20.5
2017-04-05T05:46:41.461Z,20.6
2017-04-05T05:47:49.545Z,20.5
2017-04-05T05:48:57.626Z,20.5
2017-04-05T05:50:05.712Z,20.5
2017-04-05T05:51:13.800Z,20.5
2017-04-05T05:52:21.887Z,20.5
2017-04-05T05:53:29.967Z,20.5
2017-04-05T05:54:38.061Z,20.5
2017-04-05T05:55:46.144Z,20.5
2017-04-05T05:56:54.231Z,20.4
2017-04-05T05:58:02.306Z,20.4
2017-04-05T05:59:10.395Z,20.4
2017-04-05T06:00:18.489Z,20.5
2017-04-05T06:01:26.570Z,20.4
2017-04-05T06:02:34.657Z,20.5
2017-04-05T06:03:42.743Z,20.5
2017-04-05T06:04:50.828Z,20.4
2017-04-05T06:05:58.908Z,20.4
2017-04-05T06:07:06.995Z,20.5
2017-04-05T06:08:15.078Z,20.5
2017-04-05T06:09:23.160Z,20.5
2017-04-05T06:10:31.248Z,20.5
2017-04-05T06:11:39.337Z,20.4
2017-04-05T06:12:47.417Z,20.5
2017-04-05T06:13:55.505Z,20.4
2017-04-05T06:15:03.589Z,20.5
2017-04-05T06:16:11.686Z,20.4
2017-04-05T06:17:19.758Z,20.4
2017-04-05T06:18:27.849Z,20.4
2017-04-05T06:19:35.931Z,20.4
2017-04-05T06:20:44.020Z,20.4
2017-04-05T06:21:52.107Z,20.5
2017-04-05T06:23:00.190Z,20.4
2017-04-05T06:24:08.273Z,20.3
2017-04-05T06:25:16.358Z,20.5
2017-04-05T06:26:24.443Z,20.5
2017-04-05T06:27:32.535Z,20.3
2017-04-05T06:28:40.614Z,20.3
2017-04-05T06:29:48.699Z,20.3
2017-04-05T06:30:56.785Z,20.4
2017-04-05T06:32:04.869Z,20.3
2017-04-05T06:33:12.954Z,20.4
2017-04-05T06:34:21.044Z,20.3
2017-04-05T06:35:29.127Z,20.4
2017-04-05T06:36:37.218Z,20.4
2017-04-05T06:37:45.301Z,20.4
2017-04-05T06:38:53.387Z,20.4
2017-04-05T06:40:01.464Z,20.3
2017-04-05T06:41:09.554Z,20.4
2017-04-05T06:42:17.645Z,20.4
2017-04-05T06:43:25.731Z,20.3
2017-04-05T06:44:33.970Z,20.4
2017-04-05T06:45:41.908Z,20.4
2017-04-05T06:46:49.993Z,20.4
2017-04-05T06:47:58.073Z,20.4
2017-04-05T06:49:06.159Z,20.3
2017-04-05T06:50:14.248Z,20.3
2017-04-05T06:51:22.333Z,20.3
2017-04-05T06:52:30.415Z,20.3
2017-04-05T06:53:38.502Z,20.3
2017-04-05T06:54:46.592Z,20.3
2017-04-05T06:55:54.676Z,20.4
2017-04-05T06:57:02.756Z,20.3
2017-04-05T06:58:10.845Z,20.3
2017-04-05T06:59:18.927Z,20.3
2017-04-05T07:00:27.010Z,20.3
2017-04-05T07:01:35.095Z,20.3
2017-04-05T07:02:43.186Z,20.3
2017-04-05T07:03:51.267Z,20.2
2017-04-05T07:04:59.360Z,20.2
2017-04-05T07:06:07.441Z,20.3
2017-04-05T07:07:15.525Z,20.3
2017-04-05T07:08:23.616Z,20.3
2017-04-05T07:09:31.698Z,20.3
2017-04-05T07:10:39.782Z,20.3
2017-04-05T07:11:47.866Z,20.2
2017-04-05T07:12:55.948Z,20.2
2017-04-05T07:14:04.036Z,20.3
2017-04-05T07:15:12.122Z,20.2
2017-04-05T07:16:20.204Z,20.3
2017-04-05T07:17:28.291Z,20.2
2017-04-05T07:18:36.376Z,20.2
2017-04-05T07:19:44.469Z,20.2
2017-04-05T07:20:52.550Z,20.3
2017-04-05T07:22:00.637Z,20.2
2017-04-05T07:23:08.726Z,20.2
2017-04-05T07:24:16.807Z,20.2
2017-04-05T07:25:24.895Z,20.2
2017-04-05T07:26:32.979Z,20.2
2017-04-05T07:27:41.062Z,20.2
2017-04-05T07:28:49.147Z,20.2
2017-04-05T07:29:57.240Z,20.2
2017-04-05T07:31:05.332Z,20.2
2017-04-05T07:32:13.403Z,20.3
2017-04-05T07:33:21.495Z,20.3
2017-04-05T07:34:29.586Z,20.2
2017-04-05T07:35:37.660Z,20.2
2017-04-05T07:36:45.746Z,20.2
2017-04-05T07:37:53.835Z,20.2
2017-04-05T07:39:01.921Z,20.2
2017-04-05T07:40:10.003Z,20.2
2017-04-05T07:41:18.090Z,20.2
2017-04-05T07:42:26.424Z,20.1
2017-04-05T07:43:34.266Z,20.1
2017-04-05T07:44:42.345Z,20.3
2017-04-05T07:45:50.429Z,20.2
2017-04-05T07:46:58.515Z,20.3
2017-04-05T07:48:06.595Z,20.3
2017-04-05T07:49:14.684Z,20.2
2017-04-05T07:50:22.962Z,20.1
2017-04-05T07:51:30.853Z,20.1
2017-04-05T07:52:38.942Z,20.2
2017-04-05T07:53:47.028Z,20.2
2017-04-05T07:54:55.116Z,20.2
2017-04-05T07:56:03.197Z,20.1
2017-04-05T07:57:11.283Z,20.2
2017-04-05T07:58:19.372Z,20.2
2017-04-05T07:59:27.452Z,20.2
2017-04-05T08:00:35.546Z,20.2
2017-04-05T08:01:43.631Z,20.2
2017-04-05T08:02:51.783Z,20.3
2017-04-05T08:03:59.802Z,20.2
2017-04-05T08:05:07.887Z,20.2
2017-04-05T08:06:15.973Z,20.2
2017-04-05T08:07:24.066Z,20.3
2017-04-05T08:08:32.144Z,20.1
2017-04-05T08:09:40.229Z,20.2
2017-04-05T08:10:48.313Z,20.2
2017-04-05T08:11:56.408Z,20.2
2017-04-05T08:13:04.490Z,20.3
2017-04-05T08:14:12.576Z,20.3
2017-04-05T08:15:20.658Z,20.3
2017-04-05T08:16:28.745Z,20.2
2017-04-05T08:17:36.830Z,20.3
2017-04-05T08:18:44.915Z,20.3
2017-04-05T08:19:53.067Z,20.3
2017-04-05T08:21:01.088Z,20.3
2017-04-05T08:22:09.175Z,20.3
2017-04-05T08:23:17.260Z,20.3
2017-04-05T08:24:25.346Z,20.4
2017-04-05T08:25:33.431Z,20.3
2017-04-05T08:26:41.510Z,20.3
2017-04-05T08:27:49.595Z,20.4
2017-04-05T08:28:57.686Z,20.4
2017-04-05T08:30:05.790Z,20.3
2017-04-05T08:31:13.861Z,20.4
2017-04-05T08:32:21.946Z,20.4
2017-04-05T08:33:30.032Z,20.4
2017-04-05T08:34:38.123Z,20.3
2017-04-05T08:35:46.214Z,20.4
2017-04-05T08:36:54.306Z,20.3
2017-04-05T08:38:02.378Z,20.3
2017-04-05T08:39:10.464Z,20.4
2017-04-05T08:40:18.559Z,20.4
2017-04-05T08:41:27.081Z,20.3
2017-04-05T08:42:34.724Z,20.4
2017-04-05T08:43:42.810Z,20.4
2017-04-05T08:44:50.895Z,20.4
2017-04-05T08:45:58.977Z,20.4
2017-04-05T08:47:07.058Z,20.4
2017-04-05T08:48:15.149Z,20.4
2017-04-05T08:49:23.238Z,20.4
2017-04-05T08:50:31.319Z,20.4
2017-04-05T08:51:39.410Z,20.4
2017-04-05T08:52:47.496Z,20.3
2017-04-05T08:53:55.582Z,20.4
2017-04-05T08:55:03.664Z,20.4
2017-04-05T08:56:11.750Z,20.4
2017-04-05T08:57:19.835Z,20.5
2017-04-05T08:58:28.037Z,20.5
2017-04-05T08:59:36.067Z,20.5
2017-04-05T09:00:44.091Z,20.5
2017-04-05T09:01:52.173Z,20.5
2017-04-05T09:03:00.257Z,20.5
2017-04-05T09:04:08.352Z,20.5
2017-04-05T09:05:16.433Z,20.4
2017-04-05T09:06:24.521Z,20.3
2017-04-05T09:07:32.604Z,20.4
2017-04-05T09:08:40.688Z,20.5
2017-04-05T09:09:48.773Z,20.6
2017-04-05T09:10:56.852Z,20.5
2017-04-05T09:12:04.941Z,20.5
2017-04-05T09:13:13.023Z,20.5
2017-04-05T09:14:21.114Z,20.4
2017-04-05T09:15:29.200Z,20.5
2017-04-05T09:16:37.285Z,20.5
2017-04-05T09:17:45.376Z,20.5
2017-04-05T09:18:53.457Z,20.4
2017-04-05T09:20:01.542Z,20.4
2017-04-05T09:21:09.629Z,20.4
2017-04-05T09:22:17.716Z,20.5
2017-04-05T09:23:25.799Z,20.5
2017-04-05T09:24:33.884Z,20.4
2017-04-05T09:25:41.967Z,20.4
2017-04-05T09:26:50.053Z,20.4
2017-04-05T09:27:58.141Z,20.5
2017-04-05T09:29:06.225Z,20.4
2017-04-05T09:30:14.309Z,20.5
2017-04-05T09:31:22.402Z,20.5
2017-04-05T09:32:30.489Z,20.5
2017-04-05T09:33:38.578Z,20.4
2017-04-05T09:34:46.655Z,20.5
2017-04-05T09:35:54.744Z,20.5
2017-04-05T09:37:02.825Z,20.5
2017-04-05T09:38:10.910Z,20.4
2017-04-05T09:39:18.996Z,20.4
2017-04-05T09:40:27.092Z,20.5
2017-04-05T09:41:35.177Z,20.5
2017-04-05T09:42:43.262Z,20.5
2017-04-05T09:43:51.352Z,20.5
2017-04-05T09:44:59.439Z,20.5
2017-04-05T09:46:07.519Z,20.6
2017-04-05T09:47:15.605Z,20.6
2017-04-05T09:48:23.692Z,20.5
2017-04-05T09:49:31.773Z,20.5
2017-04-05T09:50:39.861Z,20.5
2017-04-05T09:51:47.948Z,20.5
2017-04-05T09:52:56.037Z,20.6
2017-04-05T09:54:04.117Z,20.4
2017-04-05T09:55:12.206Z,20.6
2017-04-05T09:56:20.289Z,20.6
2017-04-05T09:57:28.372Z,20.6
2017-04-05T09:58:36.460Z,20.6
2017-04-05T09:59:44.552Z,20.6
2017-04-05T10:00:52.632Z,20.6
2017-04-05T10:02:00.719Z,20.6
2017-04-05T10:03:08.808Z,20.6
2017-04-05T10:04:16.891Z,20.6
2017-04-05T10:05:24.972Z,20.6
2017-04-05T10:06:33.062Z,20.7
2017-04-05T10:07:41.147Z,20.7
2017-04-05T10:08:49.708Z,20.6
2017-04-05T10:09:57.712Z,20.6
2017-04-05T10:11:05.801Z,20.7
2017-04-05T10:12:13.670Z,20.7
2017-04-05T10:13:21.920Z,20.7
2017-04-05T10:14:29.665Z,20.7
2017-04-05T10:15:37.748Z,20.7
2017-04-05T10:16:46.268Z,20.7
2017-04-05T10:17:54.386Z,20.7
2017-04-05T10:19:02.044Z,20.7
2017-04-05T10:20:10.480Z,20.7
2017-04-05T10:21:18.186Z,20.7
2017-04-05T10:22:26.521Z,20.7
2017-04-05T10:23:34.351Z,20.7
2017-04-05T10:24:42.864Z,20.7
2017-04-05T10:25:50.961Z,20.7
2017-04-05T10:26:58.946Z,20.7
2017-04-05T10:28:06.702Z,20.7
2017-04-05T10:29:14.780Z,20.7
2017-04-05T10:30:23.043Z,20.7
2017-04-05T10:31:31.317Z,20.8
2017-04-05T10:32:39.292Z,20.7
2017-04-05T10:33:47.127Z,20.7
2017-04-05T10:34:55.216Z,20.7
2017-04-05T10:36:03.298Z,20.7
2017-04-05T10:37:11.382Z,20.7
2017-04-05T10:38:19.479Z,20.8
2017-04-05T10:39:27.558Z,20.8
2017-04-05T10:40:35.639Z,20.8
2017-04-05T10:41:43.723Z,20.8
2017-04-05T10:42:51.815Z,20.8
2017-04-05T10:43:59.899Z,20.8
2017-04-05T10:45:08.044Z,20.8
2017-04-05T10:46:16.171Z,20.8
2017-04-05T10:47:24.156Z,20.8
2017-04-05T10:48:32.237Z,20.8
2017-04-05T10:49:40.326Z,20.8
2017-04-05T10:50:48.410Z,20.8
2017-04-05T10:51:56.501Z,20.8
2017-04-05T10:53:04.585Z,20.9
2017-04-05T10:54:12.674Z,20.8
2017-04-05T10:55:20.761Z,20.8
2017-04-05T10:56:28.846Z,20.8
2017-04-05T10:57:36.930Z,20.8
2017-04-05T10:58:45.017Z,20.8
2017-04-05T10:59:53.123Z,20.8
2017-04-05T11:01:01.182Z,20.8
2017-04-05T11:02:09.955Z,20.9
2017-04-05T11:03:17.357Z,20.9
2017-04-05T11:04:25.439Z,20.9
2017-04-05T11:05:33.566Z,20.9
2017-04-05T11:06:41.616Z,20.9
2017-04-05T11:07:49.702Z,20.9
2017-04-05T11:08:57.782Z,20.9
2017-04-05T11:10:05.874Z,20.9
2017-04-05T11:11:13.970Z,20.9
2017-04-05T11:12:22.040Z,20.9
2017-04-05T11:13:30.134Z,20.9
2017-04-05T11:14:38.218Z,20.9
2017-04-05T11:15:46.303Z,21.0
2017-04-05T11:16:54.388Z,21.0
2017-04-05T11:18:02.476Z,21.0
2017-04-05T11:19:10.685Z,20.9
2017-04-05T11:20:18.649Z,21.0
2017-04-05T11:21:26.735Z,20.9
2017-04-05T11:22:34.916Z,21.0
2017-04-05T11:23:42.901Z,20.9
2017-04-05T11:24:50.984Z,20.9
2017-04-05T11:25:59.074Z,20.9
2017-04-05T11:27:07.163Z,21.0
2017-04-05T11:28:15.245Z,20.9
2017-04-05T11:29:23.340Z,20.9
2017-04-05T11:30:31.426Z,20.9
2017-04-05T11:31:39.512Z,20.9
2017-04-05T11:32:47.595Z,20.9
2017-04-05T11:33:55.684Z,20.9
2017-04-05T11:35:03.768Z,20.9
2017-04-05T11:36:11.849Z,20.9
2017-04-05T11:37:19.936Z,20.9
2017-04-05T11:38:28.082Z,20.9
2017-04-05T11:39:36.157Z,20.9
2017-04-05T11:40:44.191Z,20.9
2017-04-05T11:41:52.282Z,20.9
2017-04-05T11:43:00.366Z,20.9
2017-04-05T11:44:08.450Z,20.9
2017-04-05T11:45:17.055Z,20.9
2017-04-05T11:46:25.289Z,20.9
2017-04-05T11:47:32.704Z,20.9
2017-04-05T11:48:40.791Z,20.9
2017-04-05T11:49:48.877Z,20.9
2017-04-05T11:50:56.962Z,20.9
2017-04-05T11:52:05.051Z,20.9
2017-04-05T11:53:13.138Z,20.9
2017-04-05T11:54:21.226Z,20.9
2017-04-05T11:55:29.308Z,20.9
2017-04-05T11:56:38.007Z,20.9
2017-04-05T11:57:45.479Z,20.9
2017-04-05T11:58:54.141Z,20.9
2017-04-05T12:00:01.648Z,20.9
2017-04-05T12:01:09.737Z,20.9
2017-04-05T12:02:17.823Z,20.9
2017-04-05T12:03:25.907Z,20.9
2017-04-05T12:04:34.027Z,20.9
2017-04-05T12:05:42.084Z,20.9
2017-04-05T12:06:50.174Z,20.9
2017-04-05T12:07:58.250Z,20.9
2017-04-05T12:09:06.343Z,20.9
2017-04-05T12:10:14.423Z,20.9
2017-04-05T12:11:22.513Z,20.9
2017-04-05T12:12:30.601Z,20.8
2017-04-05T12:13:38.686Z,20.8
2017-04-05T12:14:47.578Z,20.8
2017-04-05T12:15:54.857Z,20.8
2017-04-05T12:17:02.958Z,20.8
2017-04-05T12:18:11.033Z,20.8
2017-04-05T12:19:19.117Z,20.8
2017-04-05T12:20:27.205Z,20.9
2017-04-05T12:21:35.287Z,20.8
2017-04-05T12:22:43.377Z,20.9
2017-04-05T12:23:51.454Z,20.9
2017-04-05T12:25:00.245Z,20.8
2017-04-05T12:26:07.628Z,20.8
2017-04-05T12:27:15.824Z,20.7
2017-04-05T12:28:23.806Z,20.8
2017-04-05T12:29:31.886Z,20.9
2017-04-05T12:30:39.971Z,20.8
2017-04-05T12:31:48.051Z,20.8
2017-04-05T12:32:56.138Z,20.8
2017-04-05T12:34:04.224Z,20.8
2017-04-05T12:35:12.427Z,20.7
2017-04-05T12:36:20.394Z,20.8
2017-04-05T12:37:28.478Z,20.7
2017-04-05T12:38:36.574Z,20.7
2017-04-05T12:39:44.659Z,20.9
2017-04-05T12:40:52.744Z,20.7
2017-04-05T12:42:00.828Z,20.7
2017-04-05T12:45:25.083Z,20.8
2017-04-05T12:46:33.172Z,20.8
2017-04-05T12:47:41.255Z,20.8
2017-04-05T12:48:49.349Z,20.9
2017-04-05T12:49:57.432Z,20.9
2017-04-05T12:51:05.527Z,20.7
2017-04-05T12:52:13.615Z,20.8
2017-04-05T12:53:21.704Z,20.8
2017-04-05T12:54:29.790Z,20.8
2017-04-05T12:55:37.878Z,20.8
2017-04-05T12:56:45.961Z,20.8
2017-04-05T12:57:54.044Z,20.8
2017-04-05T12:59:02.132Z,20.8
2017-04-05T13:00:10.216Z,20.8
2017-04-05T13:01:18.300Z,20.7
2017-04-05T13:02:26.383Z,20.7
2017-04-05T13:03:34.473Z,20.9
2017-04-05T13:04:42.567Z,20.7
2017-04-05T13:05:50.644Z,20.7
2017-04-05T13:06:58.725Z,20.9
2017-04-05T13:08:06.813Z,20.7
2017-04-05T13:09:14.899Z,20.8
2017-04-05T13:10:22.984Z,20.8
2017-04-05T13:11:31.073Z,20.9
2017-04-05T13:12:39.156Z,20.9
2017-04-05T13:13:47.238Z,20.8
2017-04-05T13:14:55.344Z,20.7
2017-04-05T13:16:03.414Z,20.7
2017-04-05T13:17:11.501Z,20.7
2017-04-05T13:18:19.584Z,20.8
2017-04-05T13:19:27.673Z,20.8
2017-04-05T13:20:35.771Z,20.7
2017-04-05T13:21:43.860Z,20.7
2017-04-05T13:22:51.941Z,20.7
2017-04-05T13:24:00.033Z,20.8
2017-04-05T13:25:08.116Z,20.7
2017-04-05T13:26:16.204Z,20.7
2017-04-05T13:27:24.290Z,20.7
2017-04-05T13:28:32.376Z,20.7
2017-04-05T13:29:40.469Z,20.7
2017-04-05T13:30:48.545Z,20.7
2017-04-05T13:31:56.633Z,20.7
2017-04-05T13:33:04.726Z,20.7
2017-04-05T13:34:12.801Z,20.6
2017-04-05T13:35:20.887Z,20.7
2017-04-05T13:36:28.973Z,20.7
2017-04-05T13:37:37.055Z,20.7
2017-04-05T13:38:45.140Z,20.7
2017-04-05T13:39:53.229Z,20.7
2017-04-05T13:41:01.318Z,20.7
2017-04-05T13:42:09.393Z,20.7
2017-04-05T13:43:17.478Z,20.7
2017-04-05T13:44:25.570Z,20.6
2017-04-05T13:45:33.657Z,20.7
2017-04-05T13:46:41.739Z,20.6
2017-04-05T13:47:49.826Z,20.7
2017-04-05T13:48:57.907Z,20.6
2017-04-05T13:50:05.993Z,20.6
2017-04-05T13:51:14.083Z,20.6
2017-04-05T13:52:22.164Z,20.5
2017-04-05T13:53:30.248Z,20.6
2017-04-05T13:54:38.346Z,20.6
2017-04-05T13:55:46.423Z,20.5
2017-04-05T13:56:54.508Z,20.5
2017-04-05T13:58:02.591Z,20.5
2017-04-05T13:59:10.679Z,20.5
2017-04-05T14:00:18.765Z,20.5
2017-04-05T14:01:26.846Z,20.5
2017-04-05T14:02:34.933Z,20.5
2017-04-05T14:03:43.022Z,20.5
2017-04-05T14:04:51.105Z,20.4
2017-04-05T14:05:59.188Z,20.5
2017-04-05T14:07:07.276Z,20.5
2017-04-05T14:08:15.403Z,20.5
2017-04-05T14:09:23.441Z,20.5
2017-04-05T14:10:31.531Z,20.4
2017-04-05T14:11:39.621Z,20.5
2017-04-05T14:12:47.702Z,20.5
2017-04-05T14:13:55.787Z,20.5
2017-04-05T14:15:03.877Z,20.5
2017-04-05T14:16:11.961Z,20.4
2017-04-05T14:17:20.117Z,20.5
2017-04-05T14:18:28.132Z,20.5
2017-04-05T14:19:36.214Z,20.5
2017-04-05T14:20:44.311Z,20.5
2017-04-05T14:21:52.406Z,20.3
2017-04-05T14:23:00.480Z,20.3
2017-04-05T14:24:08.574Z,20.3
2017-04-05T14:25:16.639Z,20.4
2017-04-05T14:26:24.730Z,20.4
2017-04-05T14:27:32.809Z,20.3
2017-04-05T14:28:40.894Z,20.4
2017-04-05T14:29:48.981Z,20.3
2017-04-05T14:30:57.069Z,20.4
2017-04-05T14:32:05.155Z,20.3
2017-04-05T14:33:13.235Z,20.3
2017-04-05T14:34:21.331Z,20.3
2017-04-05T14:35:29.523Z,20.3
2017-04-05T14:36:37.493Z,20.4
2017-04-05T14:37:45.579Z,20.3
2017-04-05T14:38:53.669Z,20.4
2017-04-05T14:40:01.751Z,20.3
2017-04-05T14:41:09.834Z,20.3
2017-04-05T14:42:17.930Z,20.4
2017-04-05T14:43:26.013Z,20.4
2017-04-05T14:44:34.096Z,20.4
2017-04-05T14:45:42.175Z,20.3
2017-04-05T14:46:50.275Z,20.4
2017-04-05T14:47:58.354Z,20.4
2017-04-05T14:49:06.441Z,20.4
2017-04-05T14:50:14.555Z,20.4
2017-04-05T14:51:22.619Z,20.3
2017-04-05T14:52:30.700Z,20.3
2017-04-05T14:53:38.787Z,20.4
2017-04-05T14:54:46.873Z,20.4
2017-04-05T14:55:54.960Z,20.4
2017-04-05T14:57:03.040Z,20.3
2017-04-05T14:58:11.130Z,20.4
2017-04-05T14:59:19.301Z,20.3
2017-04-05T15:00:27.302Z,20.3
2017-04-05T15:01:35.388Z,20.3
2017-04-05T15:02:43.475Z,20.3
2017-04-05T15:03:51.558Z,20.3
2017-04-05T15:04:59.639Z,20.3
2017-04-05T15:06:07.731Z,20.3
2017-04-05T15:07:15.809Z,20.3
2017-04-05T15:08:23.898Z,20.3